sensor_id;sensor_type;location;lat;lon;timestamp;pressure;altitude;pressure_sealevel;temperature;humidity
15914;BME280;8055;51.930;8.840;2023-10-19T00:00:14;74986.72;;;-145.72;100.00
15914;BME280;8055;51.930;8.840;2023-10-19T00:02:48;74978.47;;;-145.72;100.00
15914;BME280;8055;51.930;8.840;2023-10-19T00:05:16;74982.59;;;-145.72;100.00
15914;BME280;8055;51.930;8.840;2023-10-19T00:07:41;74976.38;;;-145.72;100.00
15914;BME280;8055;51.930;8.840;2023-10-19T00:10:07;74974.31;;;-145.72;100.00
15914;BME280;8055;51.930;8.840;2023-10-19T00:12:32;74970.19;;;-145.72;100.00
15914;BME280;8055;51.930;8.840;2023-10-19T00:14:58;74963.97;;;-145.72;100.00
15914;BME280;8055;51.930;8.840;2023-10-19T00:17:24;74957.78;;;-145.72;100.00
15914;BME280;8055;51.930;8.840;2023-10-19T00:19:52;74957.78;;;-145.72;100.00
15914;BME280;8055;51.930;8.840;2023-10-19T00:22:43;74951.56;;;-145.72;100.00
15914;BME280;8055;51.930;8.840;2023-10-19T00:25:09;74947.44;;;-145.72;100.00
15914;BME280;8055;51.930;8.840;2023-10-19T00:27:39;74943.28;;;-145.72;100.00
15914;BME280;8055;51.930;8.840;2023-10-19T00:30:06;74951.56;;;-145.72;100.00
15914;BME280;8055;51.930;8.840;2023-10-19T00:32:32;74955.69;;;-145.72;100.00
15914;BME280;8055;51.930;8.840;2023-10-19T00:34:59;74941.22;;;-145.72;100.00
15914;BME280;8055;51.930;8.840;2023-10-19T00:37:33;74943.28;;;-145.72;100.00
15914;BME280;8055;51.930;8.840;2023-10-19T00:40:05;74939.16;;;-145.72;100.00
15914;BME280;8055;51.930;8.840;2023-10-19T00:42:41;74947.44;;;-145.72;100.00
15914;BME280;8055;51.930;8.840;2023-10-19T00:45:12;74949.50;;;-145.72;100.00
15914;BME280;8055;51.930;8.840;2023-10-19T00:47:38;74945.34;;;-145.72;100.00
15914;BME280;8055;51.930;8.840;2023-10-19T00:50:08;74935.00;;;-145.72;100.00
15914;BME280;8055;51.930;8.840;2023-10-19T00:52:42;74937.06;;;-145.72;100.00
15914;BME280;8055;51.930;8.840;2023-10-19T00:55:18;74930.88;;;-145.72;100.00
15914;BME280;8055;51.930;8.840;2023-10-19T00:57:46;74935.00;;;-145.72;100.00
15914;BME280;8055;51.930;8.840;2023-10-19T01:00:15;74928.81;;;-145.72;100.00
15914;BME280;8055;51.930;8.840;2023-10-19T01:03:00;74935.00;;;-145.72;100.00
15914;BME280;8055;51.930;8.840;2023-10-19T01:05:26;74935.00;;;-145.72;100.00
15914;BME280;8055;51.930;8.840;2023-10-19T01:07:57;74926.72;;;-145.72;100.00
15914;BME280;8055;51.930;8.840;2023-10-19T01:10:24;74922.59;;;-145.72;100.00
15914;BME280;8055;51.930;8.840;2023-10-19T01:12:50;74918.47;;;-145.72;100.00
15914;BME280;8055;51.930;8.840;2023-10-19T01:15:17;74914.31;;;-145.72;100.00
15914;BME280;8055;51.930;8.840;2023-10-19T01:17:58;74914.31;;;-145.72;100.00
15914;BME280;8055;51.930;8.840;2023-10-19T01:20:28;74906.03;;;-145.72;100.00
15914;BME280;8055;51.930;8.840;2023-10-19T01:22:57;74901.91;;;-145.72;100.00
15914;BME280;8055;51.930;8.840;2023-10-19T01:25:45;74906.03;;;-145.72;100.00
15914;BME280;8055;51.930;8.840;2023-10-19T01:28:20;74899.84;;;-145.72;100.00
15914;BME280;8055;51.930;8.840;2023-10-19T01:30:49;74899.84;;;-145.72;100.00
15914;BME280;8055;51.930;8.840;2023-10-19T01:33:18;74893.63;;;-145.72;100.00
15914;BME280;8055;51.930;8.840;2023-10-19T01:35:44;74889.50;;;-145.72;100.00
15914;BME280;8055;51.930;8.840;2023-10-19T01:38:32;74893.63;;;-145.72;100.00
15914;BME280;8055;51.930;8.840;2023-10-19T01:40:59;74889.50;;;-145.72;100.00
15914;BME280;8055;51.930;8.840;2023-10-19T01:43:28;74891.56;;;-145.72;100.00
15914;BME280;8055;51.930;8.840;2023-10-19T01:45:57;74891.56;;;-145.72;100.00
15914;BME280;8055;51.930;8.840;2023-10-19T01:48:23;74885.34;;;-145.72;100.00
15914;BME280;8055;51.930;8.840;2023-10-19T01:51:05;74885.34;;;-145.72;100.00
15914;BME280;8055;51.930;8.840;2023-10-19T01:53:33;74879.16;;;-145.72;100.00
15914;BME280;8055;51.930;8.840;2023-10-19T01:56:00;74881.22;;;-145.72;100.00
15914;BME280;8055;51.930;8.840;2023-10-19T01:58:26;74883.28;;;-145.72;100.00
15914;BME280;8055;51.930;8.840;2023-10-19T02:00:54;74879.16;;;-145.72;100.00
15914;BME280;8055;51.930;8.840;2023-10-19T02:03:21;74883.28;;;-145.72;100.00
15914;BME280;8055;51.930;8.840;2023-10-19T02:05:57;74883.28;;;-145.72;100.00
15914;BME280;8055;51.930;8.840;2023-10-19T02:08:24;74879.16;;;-145.72;100.00
15914;BME280;8055;51.930;8.840;2023-10-19T02:10:52;74877.09;;;-145.72;100.00
15914;BME280;8055;51.930;8.840;2023-10-19T02:13:19;74875.00;;;-145.72;100.00
15914;BME280;8055;51.930;8.840;2023-10-19T02:15:44;74872.94;;;-145.72;100.00
15914;BME280;8055;51.930;8.840;2023-10-19T02:18:10;74870.88;;;-145.72;100.00
15914;BME280;8055;51.930;8.840;2023-10-19T02:20:36;74868.81;;;-145.72;100.00
15914;BME280;8055;51.930;8.840;2023-10-19T02:23:06;74860.53;;;-145.72;100.00
15914;BME280;8055;51.930;8.840;2023-10-19T02:25:33;74858.47;;;-145.72;100.00
15914;BME280;8055;51.930;8.840;2023-10-19T02:28:05;74856.41;;;-145.72;100.00
15914;BME280;8055;51.930;8.840;2023-10-19T02:30:34;74858.47;;;-145.72;100.00
15914;BME280;8055;51.930;8.840;2023-10-19T02:33:00;74848.13;;;-145.72;100.00
15914;BME280;8055;51.930;8.840;2023-10-19T02:35:31;74848.13;;;-145.72;100.00
15914;BME280;8055;51.930;8.840;2023-10-19T02:37:57;74843.97;;;-145.72;100.00
15914;BME280;8055;51.930;8.840;2023-10-19T02:40:23;74848.13;;;-145.72;100.00
15914;BME280;8055;51.930;8.840;2023-10-19T02:42:50;74837.78;;;-145.72;100.00
15914;BME280;8055;51.930;8.840;2023-10-19T02:45:19;74833.63;;;-145.72;100.00
15914;BME280;8055;51.930;8.840;2023-10-19T02:47:45;74831.56;;;-145.72;100.00
15914;BME280;8055;51.930;8.840;2023-10-19T02:50:11;74833.63;;;-145.72;100.00
15914;BME280;8055;51.930;8.840;2023-10-19T02:52:41;74831.56;;;-145.72;100.00
15914;BME280;8055;51.930;8.840;2023-10-19T02:55:07;74825.38;;;-145.72;100.00
15914;BME280;8055;51.930;8.840;2023-10-19T02:57:33;74821.22;;;-145.72;100.00
15914;BME280;8055;51.930;8.840;2023-10-19T02:59:58;74817.09;;;-145.72;100.00
15914;BME280;8055;51.930;8.840;2023-10-19T03:02:24;74810.88;;;-145.72;100.00
15914;BME280;8055;51.930;8.840;2023-10-19T03:04:53;74802.63;;;-145.72;100.00
15914;BME280;8055;51.930;8.840;2023-10-19T03:07:18;74812.94;;;-145.72;100.00
15914;BME280;8055;51.930;8.840;2023-10-19T03:09:44;74806.75;;;-145.72;100.00
15914;BME280;8055;51.930;8.840;2023-10-19T03:12:19;74806.75;;;-145.72;100.00
15914;BME280;8055;51.930;8.840;2023-10-19T03:14:45;74798.47;;;-145.72;100.00
15914;BME280;8055;51.930;8.840;2023-10-19T03:17:13;74796.41;;;-145.72;100.00
15914;BME280;8055;51.930;8.840;2023-10-19T03:19:38;74794.34;;;-145.72;100.00
15914;BME280;8055;51.930;8.840;2023-10-19T03:22:04;74792.25;;;-145.72;100.00
15914;BME280;8055;51.930;8.840;2023-10-19T03:24:32;74796.41;;;-145.72;100.00
15914;BME280;8055;51.930;8.840;2023-10-19T03:27:10;74786.06;;;-145.72;100.00
15914;BME280;8055;51.930;8.840;2023-10-19T03:29:48;74786.06;;;-145.72;100.00
15914;BME280;8055;51.930;8.840;2023-10-19T03:32:19;74779.84;;;-145.72;100.00
15914;BME280;8055;51.930;8.840;2023-10-19T03:34:47;74786.06;;;-145.72;100.00
15914;BME280;8055;51.930;8.840;2023-10-19T03:37:14;74781.91;;;-145.72;100.00
15914;BME280;8055;51.930;8.840;2023-10-19T03:39:42;74777.78;;;-145.72;100.00
15914;BME280;8055;51.930;8.840;2023-10-19T03:42:11;74773.66;;;-145.72;100.00
15914;BME280;8055;51.930;8.840;2023-10-19T03:44:39;74767.44;;;-145.72;100.00
15914;BME280;8055;51.930;8.840;2023-10-19T03:47:25;74765.38;;;-145.72;100.00
15914;BME280;8055;51.930;8.840;2023-10-19T03:49:51;74759.16;;;-145.72;100.00
15914;BME280;8055;51.930;8.840;2023-10-19T03:52:17;74757.09;;;-145.72;100.00
15914;BME280;8055;51.930;8.840;2023-10-19T03:54:42;74755.03;;;-145.72;100.00
15914;BME280;8055;51.930;8.840;2023-10-19T03:57:11;74748.81;;;-145.72;100.00
15914;BME280;8055;51.930;8.840;2023-10-19T03:59:55;74740.56;;;-145.72;100.00
15914;BME280;8055;51.930;8.840;2023-10-19T04:02:26;74732.28;;;-145.72;100.00
15914;BME280;8055;51.930;8.840;2023-10-19T04:04:54;74732.28;;;-145.72;100.00
15914;BME280;8055;51.930;8.840;2023-10-19T04:07:22;74724.00;;;-145.72;100.00
15914;BME280;8055;51.930;8.840;2023-10-19T04:09:55;74730.22;;;-145.72;100.00
15914;BME280;8055;51.930;8.840;2023-10-19T04:12:29;74715.72;;;-145.72;100.00
15914;BME280;8055;51.930;8.840;2023-10-19T04:14:55;74709.53;;;-145.72;100.00
15914;BME280;8055;51.930;8.840;2023-10-19T04:17:26;74709.53;;;-145.72;100.00
15914;BME280;8055;51.930;8.840;2023-10-19T04:19:52;74705.38;;;-145.72;100.00
15914;BME280;8055;51.930;8.840;2023-10-19T04:22:18;74703.31;;;-145.72;100.00
15914;BME280;8055;51.930;8.840;2023-10-19T04:24:52;74699.19;;;-145.72;100.00
15914;BME280;8055;51.930;8.840;2023-10-19T04:27:18;74703.31;;;-145.72;100.00
15914;BME280;8055;51.930;8.840;2023-10-19T04:29:48;74697.09;;;-145.72;100.00
15914;BME280;8055;51.930;8.840;2023-10-19T04:32:15;74701.25;;;-145.72;100.00
15914;BME280;8055;51.930;8.840;2023-10-19T04:34:44;74695.03;;;-145.72;100.00
15914;BME280;8055;51.930;8.840;2023-10-19T04:37:10;74692.97;;;-145.72;100.00
15914;BME280;8055;51.930;8.840;2023-10-19T04:39:37;74692.97;;;-145.72;100.00
15914;BME280;8055;51.930;8.840;2023-10-19T04:42:03;74674.34;;;-145.72;100.00
15914;BME280;8055;51.930;8.840;2023-10-19T04:44:29;74670.22;;;-145.72;100.00
15914;BME280;8055;51.930;8.840;2023-10-19T04:46:56;74670.22;;;-145.72;100.00
15914;BME280;8055;51.930;8.840;2023-10-19T04:49:22;74661.94;;;-145.72;100.00
15914;BME280;8055;51.930;8.840;2023-10-19T04:51:47;74661.94;;;-145.72;100.00
15914;BME280;8055;51.930;8.840;2023-10-19T04:54:13;74664.00;;;-145.72;100.00
15914;BME280;8055;51.930;8.840;2023-10-19T04:56:38;74657.81;;;-145.72;100.00
15914;BME280;8055;51.930;8.840;2023-10-19T04:59:04;74653.66;;;-145.72;100.00
15914;BME280;8055;51.930;8.840;2023-10-19T05:01:30;74651.59;;;-145.72;100.00
15914;BME280;8055;51.930;8.840;2023-10-19T05:03:58;74641.25;;;-145.72;100.00
15914;BME280;8055;51.930;8.840;2023-10-19T05:06:23;74645.38;;;-145.72;100.00
15914;BME280;8055;51.930;8.840;2023-10-19T05:08:48;74641.25;;;-145.72;100.00
15914;BME280;8055;51.930;8.840;2023-10-19T05:11:14;74637.13;;;-145.72;100.00
15914;BME280;8055;51.930;8.840;2023-10-19T05:13:40;74637.13;;;-145.72;100.00
15914;BME280;8055;51.930;8.840;2023-10-19T05:16:05;74643.31;;;-145.72;100.00
15914;BME280;8055;51.930;8.840;2023-10-19T05:18:31;74626.78;;;-145.72;100.00
15914;BME280;8055;51.930;8.840;2023-10-19T05:20:56;74643.31;;;-145.72;100.00
15914;BME280;8055;51.930;8.840;2023-10-19T05:23:25;74639.19;;;-145.72;100.00
15914;BME280;8055;51.930;8.840;2023-10-19T05:26:00;74632.97;;;-145.72;100.00
15914;BME280;8055;51.930;8.840;2023-10-19T05:28:27;74635.03;;;-145.72;100.00
15914;BME280;8055;51.930;8.840;2023-10-19T05:30:53;74632.97;;;-145.72;100.00
15914;BME280;8055;51.930;8.840;2023-10-19T05:33:19;74637.13;;;-145.72;100.00
15914;BME280;8055;51.930;8.840;2023-10-19T05:35:49;74632.97;;;-145.72;100.00
15914;BME280;8055;51.930;8.840;2023-10-19T05:38:15;74632.97;;;-145.72;100.00
15914;BME280;8055;51.930;8.840;2023-10-19T05:40:41;74635.03;;;-145.72;100.00
15914;BME280;8055;51.930;8.840;2023-10-19T05:43:08;74632.97;;;-145.72;100.00
15914;BME280;8055;51.930;8.840;2023-10-19T05:45:34;74635.03;;;-145.72;100.00
15914;BME280;8055;51.930;8.840;2023-10-19T05:48:02;74628.84;;;-145.72;100.00
15914;BME280;8055;51.930;8.840;2023-10-19T05:50:33;74632.97;;;-145.72;100.00
15914;BME280;8055;51.930;8.840;2023-10-19T05:52:58;74630.91;;;-145.72;100.00
15914;BME280;8055;51.930;8.840;2023-10-19T05:55:23;74632.97;;;-145.72;100.00
15914;BME280;8055;51.930;8.840;2023-10-19T05:57:49;74630.91;;;-145.72;100.00
15914;BME280;8055;51.930;8.840;2023-10-19T06:00:15;74628.84;;;-145.72;100.00
15914;BME280;8055;51.930;8.840;2023-10-19T06:02:45;74628.84;;;-145.72;100.00
15914;BME280;8055;51.930;8.840;2023-10-19T06:05:12;74628.84;;;-145.72;100.00
15914;BME280;8055;51.930;8.840;2023-10-19T06:07:37;74630.91;;;-145.72;100.00
15914;BME280;8055;51.930;8.840;2023-10-19T06:10:03;74635.03;;;-145.72;100.00
15914;BME280;8055;51.930;8.840;2023-10-19T06:12:33;74628.84;;;-145.72;100.00
15914;BME280;8055;51.930;8.840;2023-10-19T06:14:59;74635.03;;;-145.72;100.00
15914;BME280;8055;51.930;8.840;2023-10-19T06:17:26;74628.84;;;-145.72;100.00
15914;BME280;8055;51.930;8.840;2023-10-19T06:19:52;74635.03;;;-145.72;100.00
15914;BME280;8055;51.930;8.840;2023-10-19T06:22:17;74637.13;;;-145.72;100.00
15914;BME280;8055;51.930;8.840;2023-10-19T06:24:42;74632.97;;;-145.72;100.00
15914;BME280;8055;51.930;8.840;2023-10-19T06:27:09;74635.03;;;-145.72;100.00
15914;BME280;8055;51.930;8.840;2023-10-19T06:29:35;74632.97;;;-145.72;100.00
15914;BME280;8055;51.930;8.840;2023-10-19T06:32:00;74628.84;;;-145.72;100.00
15914;BME280;8055;51.930;8.840;2023-10-19T06:34:25;74626.78;;;-145.72;100.00
15914;BME280;8055;51.930;8.840;2023-10-19T06:36:52;74626.78;;;-145.72;100.00
15914;BME280;8055;51.930;8.840;2023-10-19T06:39:19;74626.78;;;-145.72;100.00
15914;BME280;8055;51.930;8.840;2023-10-19T06:41:46;74620.56;;;-145.72;100.00
15914;BME280;8055;51.930;8.840;2023-10-19T06:44:13;74620.56;;;-145.72;100.00
15914;BME280;8055;51.930;8.840;2023-10-19T06:46:39;74608.16;;;-145.72;100.00
15914;BME280;8055;51.930;8.840;2023-10-19T06:49:05;74614.34;;;-145.72;100.00
15914;BME280;8055;51.930;8.840;2023-10-19T06:51:30;74612.28;;;-145.72;100.00
15914;BME280;8055;51.930;8.840;2023-10-19T06:53:57;74608.16;;;-145.72;100.00
15914;BME280;8055;51.930;8.840;2023-10-19T06:56:23;74606.09;;;-145.72;100.00
15914;BME280;8055;51.930;8.840;2023-10-19T06:58:48;74606.09;;;-145.72;100.00
15914;BME280;8055;51.930;8.840;2023-10-19T07:01:14;74599.88;;;-145.72;100.00
15914;BME280;8055;51.930;8.840;2023-10-19T07:03:42;74595.75;;;-145.72;100.00
15914;BME280;8055;51.930;8.840;2023-10-19T07:06:07;74595.75;;;-145.72;100.00
15914;BME280;8055;51.930;8.840;2023-10-19T07:08:37;74585.41;;;-145.72;100.00
15914;BME280;8055;51.930;8.840;2023-10-19T07:11:02;74583.34;;;-145.72;100.00
15914;BME280;8055;51.930;8.840;2023-10-19T07:13:27;74570.91;;;-145.72;100.00
15914;BME280;8055;51.930;8.840;2023-10-19T07:15:54;74570.91;;;-145.72;100.00
15914;BME280;8055;51.930;8.840;2023-10-19T07:18:20;74562.66;;;-145.72;100.00
15914;BME280;8055;51.930;8.840;2023-10-19T07:20:45;74556.44;;;-145.72;100.00
15914;BME280;8055;51.930;8.840;2023-10-19T07:23:13;74554.38;;;-145.72;100.00
15914;BME280;8055;51.930;8.840;2023-10-19T07:25:47;74558.50;;;-145.72;100.00
15914;BME280;8055;51.930;8.840;2023-10-19T07:28:16;74544.03;;;-145.72;100.00
15914;BME280;8055;51.930;8.840;2023-10-19T07:30:43;74539.88;;;-145.72;100.00
15914;BME280;8055;51.930;8.840;2023-10-19T07:33:09;74527.47;;;-145.72;100.00
15914;BME280;8055;51.930;8.840;2023-10-19T07:35:36;74521.28;;;-145.72;100.00
15914;BME280;8055;51.930;8.840;2023-10-19T07:38:07;74515.06;;;-145.72;100.00
15914;BME280;8055;51.930;8.840;2023-10-19T07:40:34;74510.94;;;-145.72;100.00
15914;BME280;8055;51.930;8.840;2023-10-19T07:43:00;74500.59;;;-145.72;100.00
15914;BME280;8055;51.930;8.840;2023-10-19T07:45:25;74488.19;;;-145.72;100.00
15914;BME280;8055;51.930;8.840;2023-10-19T07:47:51;74481.97;;;-145.72;100.00
15914;BME280;8055;51.930;8.840;2023-10-19T07:50:16;74484.03;;;-145.72;100.00
15914;BME280;8055;51.930;8.840;2023-10-19T07:52:51;74479.91;;;-145.72;100.00
15914;BME280;8055;51.930;8.840;2023-10-19T07:55:18;74475.75;;;-145.72;100.00
15914;BME280;8055;51.930;8.840;2023-10-19T07:57:44;74486.09;;;-145.72;100.00
15914;BME280;8055;51.930;8.840;2023-10-19T08:00:11;74479.91;;;-145.72;100.00
15914;BME280;8055;51.930;8.840;2023-10-19T08:02:39;74475.75;;;-145.72;100.00
15914;BME280;8055;51.930;8.840;2023-10-19T08:05:08;74479.91;;;-145.72;100.00
15914;BME280;8055;51.930;8.840;2023-10-19T08:07:33;74486.09;;;-145.72;100.00
15914;BME280;8055;51.930;8.840;2023-10-19T08:10:02;74477.84;;;-145.72;100.00
15914;BME280;8055;51.930;8.840;2023-10-19T08:12:30;74473.69;;;-145.72;100.00
15914;BME280;8055;51.930;8.840;2023-10-19T08:14:56;74473.69;;;-145.72;100.00
15914;BME280;8055;51.930;8.840;2023-10-19T08:17:22;74465.41;;;-145.72;100.00
15914;BME280;8055;51.930;8.840;2023-10-19T08:19:48;74461.28;;;-145.72;100.00
15914;BME280;8055;51.930;8.840;2023-10-19T08:22:14;74450.94;;;-145.72;100.00
15914;BME280;8055;51.930;8.840;2023-10-19T08:24:40;74450.94;;;-145.72;100.00
15914;BME280;8055;51.930;8.840;2023-10-19T08:27:09;74442.66;;;-145.72;100.00
15914;BME280;8055;51.930;8.840;2023-10-19T08:29:36;74432.31;;;-145.72;100.00
15914;BME280;8055;51.930;8.840;2023-10-19T08:32:02;74426.13;;;-145.72;100.00
15914;BME280;8055;51.930;8.840;2023-10-19T08:34:27;74426.13;;;-145.72;100.00
15914;BME280;8055;51.930;8.840;2023-10-19T08:36:55;74419.91;;;-145.72;100.00
15914;BME280;8055;51.930;8.840;2023-10-19T08:39:20;74409.56;;;-145.72;100.00
15914;BME280;8055;51.930;8.840;2023-10-19T08:41:46;74407.50;;;-145.72;100.00
15914;BME280;8055;51.930;8.840;2023-10-19T08:44:13;74403.38;;;-145.72;100.00
15914;BME280;8055;51.930;8.840;2023-10-19T08:46:44;74397.16;;;-145.72;100.00
15914;BME280;8055;51.930;8.840;2023-10-19T08:49:11;74388.88;;;-145.72;100.00
15914;BME280;8055;51.930;8.840;2023-10-19T08:51:46;74388.88;;;-145.72;100.00
15914;BME280;8055;51.930;8.840;2023-10-19T08:54:13;74372.34;;;-145.72;100.00
15914;BME280;8055;51.930;8.840;2023-10-19T08:56:42;74368.19;;;-145.72;100.00
15914;BME280;8055;51.930;8.840;2023-10-19T08:59:08;74347.50;;;-145.72;100.00
15914;BME280;8055;51.930;8.840;2023-10-19T09:01:37;74337.16;;;-145.72;100.00
15914;BME280;8055;51.930;8.840;2023-10-19T09:04:03;74320.63;;;-145.72;100.00
15914;BME280;8055;51.930;8.840;2023-10-19T09:06:35;74316.50;;;-145.72;100.00
15914;BME280;8055;51.930;8.840;2023-10-19T09:09:10;74293.72;;;-145.72;100.00
15914;BME280;8055;51.930;8.840;2023-10-19T09:11:44;74291.66;;;-145.72;100.00
15914;BME280;8055;51.930;8.840;2023-10-19T09:14:12;74277.19;;;-145.72;100.00
15914;BME280;8055;51.930;8.840;2023-10-19T09:16:52;74268.91;;;-145.72;100.00
15914;BME280;8055;51.930;8.840;2023-10-19T09:19:19;74252.38;;;-145.72;100.00
15914;BME280;8055;51.930;8.840;2023-10-19T09:21:45;74258.56;;;-145.72;100.00
15914;BME280;8055;51.930;8.840;2023-10-19T09:24:11;74244.09;;;-145.72;100.00
15914;BME280;8055;51.930;8.840;2023-10-19T09:26:37;74233.75;;;-145.72;100.00
15914;BME280;8055;51.930;8.840;2023-10-19T09:29:02;74223.41;;;-145.72;100.00
15914;BME280;8055;51.930;8.840;2023-10-19T09:31:28;74215.13;;;-145.72;100.00
15914;BME280;8055;51.930;8.840;2023-10-19T09:33:56;74219.28;;;-145.72;100.00
15914;BME280;8055;51.930;8.840;2023-10-19T09:36:24;74215.13;;;-145.72;100.00
15914;BME280;8055;51.930;8.840;2023-10-19T09:38:51;74208.94;;;-145.72;100.00
15914;BME280;8055;51.930;8.840;2023-10-19T09:41:19;74204.78;;;-145.72;100.00
15914;BME280;8055;51.930;8.840;2023-10-19T09:43:49;74198.59;;;-145.72;100.00
15914;BME280;8055;51.930;8.840;2023-10-19T09:46:21;74192.38;;;-145.72;100.00
15914;BME280;8055;51.930;8.840;2023-10-19T09:48:48;74186.19;;;-145.72;100.00
15914;BME280;8055;51.930;8.840;2023-10-19T09:51:15;74182.03;;;-145.72;100.00
15914;BME280;8055;51.930;8.840;2023-10-19T09:53:44;74182.03;;;-145.72;100.00
15914;BME280;8055;51.930;8.840;2023-10-19T09:56:15;74173.75;;;-145.72;100.00
15914;BME280;8055;51.930;8.840;2023-10-19T09:58:48;74165.50;;;-145.72;100.00
15914;BME280;8055;51.930;8.840;2023-10-19T10:01:15;74153.09;;;-145.72;100.00
15914;BME280;8055;51.930;8.840;2023-10-19T10:03:48;74138.59;;;-145.72;100.00
15914;BME280;8055;51.930;8.840;2023-10-19T10:06:15;74138.59;;;-145.72;100.00
15914;BME280;8055;51.930;8.840;2023-10-19T10:08:43;74128.25;;;-145.72;100.00
15914;BME280;8055;51.930;8.840;2023-10-19T10:11:25;74117.91;;;-145.72;100.00
15914;BME280;8055;51.930;8.840;2023-10-19T10:13:52;74117.91;;;-145.72;100.00
15914;BME280;8055;51.930;8.840;2023-10-19T10:16:21;74115.84;;;-145.72;100.00
15914;BME280;8055;51.930;8.840;2023-10-19T10:18:47;74113.78;;;-145.72;100.00
15914;BME280;8055;51.930;8.840;2023-10-19T10:21:20;74128.25;;;-145.72;100.00
15914;BME280;8055;51.930;8.840;2023-10-19T10:23:52;74126.19;;;-145.72;100.00
15914;BME280;8055;51.930;8.840;2023-10-19T10:26:23;74134.47;;;-145.72;100.00
15914;BME280;8055;51.930;8.840;2023-10-19T10:29:14;74136.53;;;-145.72;100.00
15914;BME280;8055;51.930;8.840;2023-10-19T10:31:45;74140.66;;;-145.72;100.00
15914;BME280;8055;51.930;8.840;2023-10-19T10:37:10;74138.59;;;-145.72;100.00
15914;BME280;8055;51.930;8.840;2023-10-19T10:39:37;74134.47;;;-145.72;100.00
15914;BME280;8055;51.930;8.840;2023-10-19T10:42:05;74126.19;;;-145.72;100.00
15914;BME280;8055;51.930;8.840;2023-10-19T10:47:09;74126.19;;;-145.72;100.00
15914;BME280;8055;51.930;8.840;2023-10-19T10:49:59;74128.25;;;-145.72;100.00
15914;BME280;8055;51.930;8.840;2023-10-19T10:52:28;74128.25;;;-145.72;100.00
15914;BME280;8055;51.930;8.840;2023-10-19T10:55:13;74105.50;;;-145.72;100.00
15914;BME280;8055;51.930;8.840;2023-10-19T10:57:41;74099.31;;;-145.72;100.00
15914;BME280;8055;51.930;8.840;2023-10-19T11:00:12;74093.09;;;-145.72;100.00
15914;BME280;8055;51.930;8.840;2023-10-19T11:02:41;74076.56;;;-145.72;100.00
15914;BME280;8055;51.930;8.840;2023-10-19T11:05:14;74062.06;;;-145.72;100.00
15914;BME280;8055;51.930;8.840;2023-10-19T11:07:41;74043.47;;;-145.72;100.00
15914;BME280;8055;51.930;8.840;2023-10-19T11:10:07;74022.78;;;-145.72;100.00
15914;BME280;8055;51.930;8.840;2023-10-19T11:12:35;73993.81;;;-145.72;100.00
15914;BME280;8055;51.930;8.840;2023-10-19T11:15:01;73960.72;;;-145.72;100.00
15914;BME280;8055;51.930;8.840;2023-10-19T11:17:42;73940.03;;;-145.72;100.00
15914;BME280;8055;51.930;8.840;2023-10-19T11:20:08;73937.97;;;-145.72;100.00
15914;BME280;8055;51.930;8.840;2023-10-19T11:22:48;73940.03;;;-145.72;100.00
15914;BME280;8055;51.930;8.840;2023-10-19T11:25:20;73935.91;;;-145.72;100.00
15914;BME280;8055;51.930;8.840;2023-10-19T11:27:46;73915.22;;;-145.72;100.00
15914;BME280;8055;51.930;8.840;2023-10-19T11:30:26;73902.81;;;-145.72;100.00
15914;BME280;8055;51.930;8.840;2023-10-19T11:32:52;73898.69;;;-145.72;100.00
15914;BME280;8055;51.930;8.840;2023-10-19T11:35:29;73871.78;;;-145.72;100.00
15914;BME280;8055;51.930;8.840;2023-10-19T11:37:57;73873.84;;;-145.72;100.00
15914;BME280;8055;51.930;8.840;2023-10-19T11:40:23;73875.94;;;-145.72;100.00
15914;BME280;8055;51.930;8.840;2023-10-19T11:42:49;73855.25;;;-145.72;100.00
15914;BME280;8055;51.930;8.840;2023-10-19T11:45:16;73855.25;;;-145.72;100.00
15914;BME280;8055;51.930;8.840;2023-10-19T11:47:43;73851.09;;;-145.72;100.00
15914;BME280;8055;51.930;8.840;2023-10-19T11:50:08;73840.78;;;-145.72;100.00
15914;BME280;8055;51.930;8.840;2023-10-19T11:52:37;73846.97;;;-145.72;100.00
15914;BME280;8055;51.930;8.840;2023-10-19T11:55:03;73834.56;;;-145.72;100.00
15914;BME280;8055;51.930;8.840;2023-10-19T11:57:30;73832.50;;;-145.72;100.00
15914;BME280;8055;51.930;8.840;2023-10-19T11:59:56;73842.84;;;-145.72;100.00
15914;BME280;8055;51.930;8.840;2023-10-19T12:02:22;73842.84;;;-145.72;100.00
15914;BME280;8055;51.930;8.840;2023-10-19T12:04:47;73851.09;;;-145.72;100.00
15914;BME280;8055;51.930;8.840;2023-10-19T12:07:13;73838.69;;;-145.72;100.00
15914;BME280;8055;51.930;8.840;2023-10-19T12:09:38;73832.50;;;-145.72;100.00
15914;BME280;8055;51.930;8.840;2023-10-19T12:12:07;73815.94;;;-145.72;100.00
15914;BME280;8055;51.930;8.840;2023-10-19T12:14:37;73807.69;;;-145.72;100.00
15914;BME280;8055;51.930;8.840;2023-10-19T12:17:02;73772.50;;;-145.72;100.00
15914;BME280;8055;51.930;8.840;2023-10-19T12:19:31;73787.00;;;-145.72;100.00
15914;BME280;8055;51.930;8.840;2023-10-19T12:21:57;73801.47;;;-145.72;100.00
15914;BME280;8055;51.930;8.840;2023-10-19T12:24:23;73813.88;;;-145.72;100.00
15914;BME280;8055;51.930;8.840;2023-10-19T12:26:49;73828.34;;;-145.72;100.00
15914;BME280;8055;51.930;8.840;2023-10-19T12:29:16;73828.34;;;-145.72;100.00
15914;BME280;8055;51.930;8.840;2023-10-19T12:31:42;73820.09;;;-145.72;100.00
15914;BME280;8055;51.930;8.840;2023-10-19T12:34:08;73805.59;;;-145.72;100.00
15914;BME280;8055;51.930;8.840;2023-10-19T12:36:36;73772.50;;;-145.72;100.00
15914;BME280;8055;51.930;8.840;2023-10-19T12:39:01;73764.25;;;-145.72;100.00
15914;BME280;8055;51.930;8.840;2023-10-19T12:41:31;73741.50;;;-145.72;100.00
15914;BME280;8055;51.930;8.840;2023-10-19T12:43:57;73731.16;;;-145.72;100.00
15914;BME280;8055;51.930;8.840;2023-10-19T12:46:25;73729.09;;;-145.72;100.00
15914;BME280;8055;51.930;8.840;2023-10-19T12:48:52;73718.75;;;-145.72;100.00
15914;BME280;8055;51.930;8.840;2023-10-19T12:51:19;73714.59;;;-145.72;100.00